createdAt,value
2023-05-05T00:01:06.240Z,49.76
2023-05-05T00:03:34.288Z,49.88
2023-05-05T00:06:01.200Z,50.26
2023-05-05T00:08:28.496Z,50.16
2023-05-05T00:10:56.009Z,50.22
2023-05-05T00:13:22.962Z,50.56
2023-05-05T00:15:53.633Z,50.79
2023-05-05T00:18:21.047Z,50.69
2023-05-05T00:20:48.266Z,50.86
2023-05-05T00:23:16.209Z,50.70
2023-05-05T00:25:42.744Z,50.94
2023-05-05T00:28:09.388Z,51.30
2023-05-05T00:30:37.268Z,51.16
2023-05-05T00:33:03.857Z,51.31
2023-05-05T00:35:30.342Z,51.59
2023-05-05T00:37:56.921Z,51.54
2023-05-05T00:40:23.523Z,51.86
2023-05-05T00:42:50.828Z,52.04
2023-05-05T00:45:18.353Z,52.67
2023-05-05T00:47:48.448Z,53.14
2023-05-05T00:50:23.895Z,54.02
2023-05-05T00:52:52.605Z,54.81
2023-05-05T00:55:19.311Z,54.51
2023-05-05T00:57:46.436Z,54.93
2023-05-05T01:00:13.188Z,54.94
2023-05-05T01:02:40.229Z,55.63
2023-05-05T01:05:08.668Z,56.23
2023-05-05T01:08:04.618Z,56.92
2023-05-05T01:10:37.132Z,57.27
2023-05-05T01:13:22.447Z,57.09
2023-05-05T01:16:01.762Z,58.45
2023-05-05T01:18:38.792Z,58.30
2023-05-05T01:21:23.613Z,59.82
2023-05-05T01:24:08.629Z,60.66
2023-05-05T01:27:12.797Z,60.67
2023-05-05T01:30:01.061Z,60.30
2023-05-05T01:32:31.783Z,60.43
2023-05-05T01:35:18.173Z,61.54
2023-05-05T01:37:56.192Z,61.83
2023-05-05T01:40:26.758Z,61.04
2023-05-05T01:42:54.658Z,61.42
2023-05-05T01:45:26.433Z,62.23
2023-05-05T01:47:55.829Z,61.98
2023-05-05T01:50:24.603Z,61.84
2023-05-05T01:52:52.603Z,62.29
2023-05-05T01:55:21.606Z,62.21
2023-05-05T01:57:50.039Z,62.59
2023-05-05T02:00:19.381Z,62.52
2023-05-05T02:02:49.295Z,62.95
2023-05-05T02:05:19.268Z,62.88
2023-05-05T02:07:46.844Z,63.31
2023-05-05T02:10:14.367Z,63.50
2023-05-05T02:12:43.005Z,64.56
2023-05-05T02:15:10.696Z,65.32
2023-05-05T02:17:40.562Z,65.93
2023-05-05T02:20:09.620Z,66.47
2023-05-05T02:22:36.336Z,66.50
2023-05-05T02:25:03.442Z,66.73
2023-05-05T02:27:34.121Z,67.26
2023-05-05T02:30:06.733Z,67.74
2023-05-05T02:32:39.988Z,67.51
2023-05-05T02:35:19.716Z,68.73
2023-05-05T02:38:00.008Z,69.20
2023-05-05T02:40:28.537Z,68.19
2023-05-05T02:42:57.326Z,68.40
2023-05-05T02:45:26.704Z,68.79
2023-05-05T02:47:53.494Z,68.85
2023-05-05T02:50:20.068Z,68.99
2023-05-05T02:52:46.913Z,68.79
2023-05-05T02:55:13.971Z,69.20
2023-05-05T02:57:49.161Z,69.00
2023-05-05T03:00:21.693Z,70.07
2023-05-05T03:02:54.284Z,69.63
2023-05-05T03:05:28.688Z,69.31
2023-05-05T03:08:25.534Z,69.24
2023-05-05T03:11:04.674Z,69.29
2023-05-05T03:13:32.532Z,69.04
2023-05-05T03:16:06.500Z,68.82
2023-05-05T03:18:34.481Z,68.70
2023-05-05T03:21:08.012Z,68.75
2023-05-05T03:23:35.720Z,68.92
2023-05-05T03:26:02.430Z,68.67
2023-05-05T03:28:29.390Z,69.08
2023-05-05T03:30:56.383Z,68.69
2023-05-05T03:33:22.827Z,68.76
2023-05-05T03:35:49.241Z,68.78
2023-05-05T03:38:15.686Z,68.61
2023-05-05T03:40:44.596Z,68.38
2023-05-05T03:43:11.883Z,68.29
2023-05-05T03:45:38.691Z,68.17
2023-05-05T03:48:05.678Z,68.26
2023-05-05T03:50:32.166Z,68.39
2023-05-05T03:52:58.558Z,68.34
2023-05-05T03:55:24.979Z,68.39
2023-05-05T03:57:51.709Z,68.42
2023-05-05T04:00:18.583Z,68.31
2023-05-05T04:02:45.057Z,68.59
2023-05-05T04:05:11.516Z,68.51
2023-05-05T04:07:37.934Z,68.69
2023-05-05T04:10:04.750Z,68.77
2023-05-05T04:12:31.192Z,68.83
2023-05-05T04:14:57.612Z,68.99
2023-05-05T04:17:24.018Z,68.87
2023-05-05T04:19:50.417Z,68.93
2023-05-05T04:22:16.833Z,68.77
2023-05-05T04:24:43.276Z,69.06
2023-05-05T04:27:09.701Z,69.05
2023-05-05T04:29:36.130Z,69.35
2023-05-05T04:32:02.530Z,69.25
2023-05-05T04:34:29.022Z,69.42
2023-05-05T04:36:55.442Z,69.45
2023-05-05T04:39:21.916Z,69.31
2023-05-05T04:41:48.395Z,69.58
2023-05-05T04:44:14.805Z,69.46
2023-05-05T04:46:41.453Z,69.73
2023-05-05T04:49:09.167Z,69.75
2023-05-05T04:51:35.608Z,70.07
2023-05-05T04:54:02.065Z,69.95
2023-05-05T04:56:31.200Z,70.07
2023-05-05T04:58:57.602Z,69.97
2023-05-05T05:01:24.036Z,70.06
2023-05-05T05:03:51.078Z,70.36
2023-05-05T05:06:17.603Z,70.45
2023-05-05T05:08:44.041Z,70.28
2023-05-05T05:11:10.661Z,70.39
2023-05-05T05:13:37.045Z,70.45
2023-05-05T05:16:03.792Z,70.60
2023-05-05T05:18:30.231Z,70.55
2023-05-05T05:20:56.662Z,70.66
2023-05-05T05:23:23.143Z,70.68
2023-05-05T05:25:49.655Z,70.67
2023-05-05T05:28:16.123Z,70.98
2023-05-05T05:30:42.524Z,70.92
2023-05-05T05:33:09.132Z,71.01
2023-05-05T05:35:35.599Z,70.64
2023-05-05T05:38:02.007Z,68.67
2023-05-05T05:40:28.403Z,67.70
2023-05-05T05:42:54.787Z,67.02
2023-05-05T05:45:21.703Z,66.98
2023-05-05T05:47:48.192Z,66.76
2023-05-05T05:50:14.754Z,66.21
2023-05-05T05:52:41.194Z,65.35
2023-05-05T05:55:08.147Z,64.80
2023-05-05T05:57:34.591Z,64.99
2023-05-05T06:00:01.949Z,64.23
2023-05-05T06:02:28.939Z,64.05
2023-05-05T06:04:55.523Z,63.91
2023-05-05T06:07:21.975Z,64.24
2023-05-05T06:09:48.379Z,64.90
2023-05-05T06:12:14.785Z,64.90
2023-05-05T06:14:41.234Z,64.40
2023-05-05T06:17:07.637Z,63.96
2023-05-05T06:19:34.586Z,64.26
2023-05-05T06:22:00.981Z,63.76
2023-05-05T06:24:27.377Z,63.88
2023-05-05T06:26:53.882Z,64.66
2023-05-05T06:29:20.369Z,64.60
2023-05-05T06:31:47.114Z,64.25
2023-05-05T06:34:13.638Z,65.24
2023-05-05T06:36:40.063Z,65.25
2023-05-05T06:39:06.543Z,65.06
2023-05-05T06:41:32.966Z,65.64
2023-05-05T06:43:59.498Z,65.50
2023-05-05T06:46:26.147Z,64.94
2023-05-05T06:48:53.041Z,64.31
2023-05-05T06:51:19.777Z,64.78
2023-05-05T06:53:46.214Z,64.35
2023-05-05T06:56:12.610Z,65.02
2023-05-05T06:58:39.014Z,65.18
2023-05-05T07:01:05.868Z,65.37
2023-05-05T07:03:32.372Z,64.79
2023-05-05T07:05:58.818Z,64.92
2023-05-05T07:08:25.356Z,64.91
2023-05-05T07:10:51.836Z,64.71
2023-05-05T07:13:18.360Z,64.55
2023-05-05T07:15:46.587Z,64.66
2023-05-05T07:18:16.843Z,64.79
2023-05-05T07:20:46.634Z,64.69
2023-05-05T07:23:13.060Z,63.94
2023-05-05T07:25:39.611Z,64.01
2023-05-05T07:28:06.415Z,63.68
2023-05-05T07:30:32.822Z,63.79
2023-05-05T07:32:59.257Z,63.71
2023-05-05T07:35:26.371Z,63.54
2023-05-05T07:37:52.861Z,63.34
2023-05-05T07:40:19.337Z,63.30
2023-05-05T07:42:47.419Z,63.05
2023-05-05T07:45:13.880Z,62.98
2023-05-05T07:47:40.789Z,62.61
2023-05-05T07:50:07.871Z,62.67
2023-05-05T07:52:45.231Z,62.05
2023-05-05T07:55:16.370Z,62.18
2023-05-05T07:57:42.836Z,62.44
2023-05-05T08:00:10.852Z,61.99
2023-05-05T08:02:37.689Z,61.85
2023-05-05T08:05:04.581Z,61.64
2023-05-05T08:07:31.033Z,60.81
2023-05-05T08:09:57.497Z,60.85
2023-05-05T08:12:23.958Z,60.20
2023-05-05T08:14:50.416Z,60.01
2023-05-05T08:17:19.352Z,59.77
2023-05-05T08:19:45.766Z,59.47
2023-05-05T08:22:12.197Z,58.85
2023-05-05T08:24:38.624Z,58.54
2023-05-05T08:27:05.051Z,58.17
2023-05-05T08:29:31.455Z,58.20
2023-05-05T08:31:57.955Z,57.65
2023-05-05T08:34:24.476Z,57.98
2023-05-05T08:36:51.073Z,57.02
2023-05-05T08:39:17.729Z,57.18
2023-05-05T08:41:44.216Z,56.80
2023-05-05T08:44:10.739Z,56.55
2023-05-05T08:46:39.147Z,56.70
2023-05-05T08:49:07.834Z,56.89
2023-05-05T08:51:42.053Z,56.79
2023-05-05T08:54:14.466Z,56.73
2023-05-05T08:56:41.911Z,56.51
2023-05-05T08:59:11.138Z,56.24
2023-05-05T09:01:38.053Z,55.66
2023-05-05T09:04:04.826Z,55.88
2023-05-05T09:06:33.759Z,55.42
2023-05-05T09:09:00.973Z,55.39
2023-05-05T09:11:28.055Z,55.10
2023-05-05T09:16:43.489Z,54.51
2023-05-05T09:19:09.915Z,54.21
2023-05-05T09:21:46.382Z,53.71
2023-05-05T09:24:14.288Z,54.08
2023-05-05T09:26:48.265Z,54.34
2023-05-05T09:29:22.448Z,54.34
2023-05-05T09:32:05.569Z,55.18
2023-05-05T09:34:34.985Z,54.52
2023-05-05T09:37:01.776Z,54.50
2023-05-05T09:39:28.186Z,54.16
2023-05-05T09:41:54.588Z,54.62
2023-05-05T09:44:35.470Z,56.56
2023-05-05T09:47:03.789Z,57.23
2023-05-05T09:49:32.089Z,58.57
2023-05-05T09:51:58.605Z,61.60
2023-05-05T09:54:27.453Z,62.23
2023-05-05T09:56:54.838Z,64.81
2023-05-05T09:59:22.091Z,66.23
2023-05-05T10:01:51.693Z,66.84
2023-05-05T10:04:25.915Z,67.18
2023-05-05T10:06:52.622Z,66.91
2023-05-05T10:09:19.122Z,67.50
2023-05-05T10:11:47.353Z,67.96
2023-05-05T10:14:15.915Z,68.66
2023-05-05T10:16:50.690Z,68.90
2023-05-05T10:19:22.227Z,68.87
2023-05-05T10:22:02.755Z,68.69
2023-05-05T10:24:55.253Z,68.72
2023-05-05T10:27:23.858Z,68.55
2023-05-05T10:30:07.558Z,69.69
2023-05-05T10:35:17.177Z,69.28
2023-05-05T10:37:45.438Z,69.76
2023-05-05T10:40:13.416Z,69.40
2023-05-05T10:42:40.632Z,69.32
2023-05-05T10:45:07.963Z,70.03
2023-05-05T10:47:36.670Z,70.34
2023-05-05T10:50:15.151Z,71.20
2023-05-05T10:52:52.239Z,71.81
2023-05-05T10:55:25.092Z,72.10
2023-05-05T10:57:54.580Z,72.80
2023-05-05T11:00:53.688Z,72.61
2023-05-05T11:03:21.781Z,73.73
2023-05-05T11:06:03.875Z,73.10
2023-05-05T11:08:32.333Z,73.41
2023-05-05T11:10:59.633Z,72.99
2023-05-05T11:13:26.458Z,73.37
2023-05-05T11:15:54.337Z,73.66
2023-05-05T11:18:36.045Z,73.75
2023-05-05T11:21:15.392Z,74.96
2023-05-05T11:23:52.035Z,74.65
2023-05-05T11:26:48.559Z,75.90
2023-05-05T11:29:14.970Z,75.12
2023-05-05T11:31:41.410Z,75.04
2023-05-05T11:34:28.164Z,76.96
2023-05-05T11:37:03.196Z,75.75
2023-05-05T11:39:38.607Z,75.70
2023-05-05T11:42:19.575Z,75.70
2023-05-05T11:44:46.037Z,75.31
2023-05-05T11:47:12.416Z,75.70
2023-05-05T11:49:39.640Z,75.66
2023-05-05T11:52:11.178Z,75.99
2023-05-05T11:54:47.993Z,76.37
2023-05-05T11:57:17.585Z,75.87
2023-05-05T12:00:00.415Z,76.42
2023-05-05T12:02:28.629Z,75.83
2023-05-05T12:04:56.913Z,76.07
2023-05-05T12:07:28.390Z,76.92
2023-05-05T12:09:55.358Z,76.12
2023-05-05T12:12:34.303Z,76.91
2023-05-05T12:15:01.083Z,76.25
2023-05-05T12:17:36.696Z,76.46
2023-05-05T12:20:03.335Z,75.99
2023-05-05T12:22:29.818Z,76.10
2023-05-05T12:25:02.484Z,76.09
2023-05-05T12:27:29.275Z,76.23
2023-05-05T12:29:57.442Z,76.12
2023-05-05T12:32:28.128Z,76.58
2023-05-05T12:34:57.358Z,76.34
2023-05-05T12:37:25.773Z,76.40
2023-05-05T12:39:55.033Z,76.40
2023-05-05T12:42:22.461Z,76.28
2023-05-05T12:44:49.392Z,76.01
2023-05-05T12:47:30.484Z,76.54
2023-05-05T12:49:57.056Z,76.14
2023-05-05T12:52:23.519Z,75.74
2023-05-05T12:54:57.753Z,76.15
2023-05-05T12:57:24.820Z,76.17
2023-05-05T12:59:52.785Z,76.35
2023-05-05T13:02:20.832Z,76.42
2023-05-05T13:04:49.328Z,76.35
2023-05-05T13:07:17.240Z,76.33
2023-05-05T13:09:43.742Z,76.00
2023-05-05T13:12:12.862Z,76.24
2023-05-05T13:14:40.766Z,76.25
2023-05-05T13:17:07.756Z,76.34
2023-05-05T13:19:35.850Z,76.51
2023-05-05T13:22:02.340Z,76.36
2023-05-05T13:24:42.275Z,76.40
2023-05-05T13:27:13.785Z,76.61
2023-05-05T13:29:41.611Z,76.95
2023-05-05T13:32:08.043Z,76.48
2023-05-05T13:34:34.872Z,76.69
2023-05-05T13:37:01.296Z,76.46
2023-05-05T13:39:27.722Z,76.19
2023-05-05T13:41:54.142Z,76.55
2023-05-05T13:44:20.640Z,76.78
2023-05-05T13:46:47.249Z,76.63
2023-05-05T13:49:13.887Z,76.47
2023-05-05T13:51:40.463Z,76.52
2023-05-05T13:54:07.322Z,76.57
2023-05-05T13:56:34.388Z,76.74
2023-05-05T13:59:01.027Z,76.60
2023-05-05T14:01:27.503Z,76.39
2023-05-05T14:03:56.934Z,76.42
2023-05-05T14:06:23.803Z,76.19
2023-05-05T14:08:50.214Z,75.86
2023-05-05T14:11:18.137Z,75.63
2023-05-05T14:13:46.454Z,75.84
2023-05-05T14:16:13.387Z,75.88
2023-05-05T14:18:40.061Z,76.05
2023-05-05T14:21:06.549Z,75.88
2023-05-05T14:23:33.045Z,75.34
2023-05-05T14:25:59.461Z,75.38
2023-05-05T14:28:25.900Z,75.27
2023-05-05T14:30:52.811Z,75.27
2023-05-05T14:33:19.201Z,75.35
2023-05-05T14:35:45.739Z,75.10
2023-05-05T14:38:12.202Z,74.73
2023-05-05T14:40:38.702Z,74.66
2023-05-05T14:43:05.110Z,74.59
2023-05-05T14:45:31.601Z,74.18
2023-05-05T14:47:58.043Z,73.00
2023-05-05T14:50:24.463Z,72.60
2023-05-05T14:52:50.915Z,71.65
2023-05-05T14:55:17.415Z,70.92
2023-05-05T14:57:43.823Z,69.86
2023-05-05T15:00:10.977Z,70.71
2023-05-05T15:02:37.663Z,70.40
2023-05-05T15:05:04.515Z,69.96
2023-05-05T15:07:30.974Z,69.92
2023-05-05T15:09:57.480Z,69.97
2023-05-05T15:12:24.149Z,68.75
2023-05-05T15:14:50.571Z,68.92
2023-05-05T15:17:17.031Z,68.61
2023-05-05T15:19:43.522Z,68.78
2023-05-05T15:22:09.975Z,68.97
2023-05-05T15:24:37.215Z,69.08
2023-05-05T15:27:03.806Z,68.97
2023-05-05T15:29:30.231Z,68.55
2023-05-05T15:31:56.694Z,68.54
2023-05-05T15:34:23.142Z,68.73
2023-05-05T15:36:49.547Z,69.20
2023-05-05T15:39:15.966Z,69.33
2023-05-05T15:41:42.412Z,69.31
2023-05-05T15:44:11.868Z,68.91
2023-05-05T15:46:39.161Z,67.87
2023-05-05T15:49:05.623Z,67.77
2023-05-05T15:51:32.346Z,67.93
2023-05-05T15:53:59.430Z,67.23
2023-05-05T15:56:29.305Z,67.07
2023-05-05T15:58:56.678Z,66.29
2023-05-05T16:01:23.256Z,66.69
2023-05-05T16:03:49.716Z,67.18
2023-05-05T16:06:16.288Z,67.15
2023-05-05T16:08:42.750Z,65.72
2023-05-05T16:11:09.300Z,66.28
2023-05-05T16:13:35.926Z,64.11
2023-05-05T16:16:02.374Z,62.16
2023-05-05T16:18:28.786Z,60.83
2023-05-05T16:20:55.170Z,60.72
2023-05-05T16:23:21.579Z,59.95
2023-05-05T16:25:47.974Z,59.02
2023-05-05T16:28:14.418Z,58.75
2023-05-05T16:30:42.758Z,58.31
2023-05-05T16:33:09.391Z,57.65
2023-05-05T16:35:36.244Z,57.83
2023-05-05T16:38:02.674Z,57.77
2023-05-05T16:40:29.385Z,58.57
2023-05-05T16:42:55.836Z,58.14
2023-05-05T16:45:22.540Z,56.90
2023-05-05T16:47:49.085Z,57.43
2023-05-05T16:50:17.300Z,57.30
2023-05-05T16:52:43.758Z,58.71
2023-05-05T16:55:10.463Z,58.80
2023-05-05T16:57:37.112Z,59.34
2023-05-05T17:00:05.350Z,59.20
2023-05-05T17:02:31.905Z,59.42
2023-05-05T17:04:58.426Z,59.96
2023-05-05T17:07:24.930Z,60.41
2023-05-05T17:09:51.387Z,60.17
2023-05-05T17:12:17.819Z,60.26
2023-05-05T17:14:45.414Z,60.14
2023-05-05T17:17:11.952Z,59.95
2023-05-05T17:19:38.440Z,59.61
2023-05-05T17:22:04.971Z,59.70
2023-05-05T17:24:31.433Z,60.15
2023-05-05T17:26:58.387Z,59.71
2023-05-05T17:29:25.007Z,60.34
2023-05-05T17:31:51.758Z,60.45
2023-05-05T17:34:18.285Z,60.81
2023-05-05T17:36:44.779Z,59.84
2023-05-05T17:39:11.470Z,59.50
2023-05-05T17:41:37.929Z,60.29
2023-05-05T17:44:04.508Z,60.87
2023-05-05T17:46:31.008Z,61.39
2023-05-05T17:48:57.478Z,61.05
2023-05-05T17:51:23.943Z,61.05
2023-05-05T17:53:50.351Z,61.19
2023-05-05T17:56:17.099Z,61.33
2023-05-05T17:58:43.509Z,61.42
2023-05-05T18:01:13.605Z,62.16
2023-05-05T18:03:41.005Z,62.51
2023-05-05T18:06:07.725Z,62.38
2023-05-05T18:08:34.136Z,63.05
2023-05-05T18:11:01.799Z,63.17
2023-05-05T18:13:28.278Z,64.24
2023-05-05T18:15:54.777Z,64.72
2023-05-05T18:18:21.386Z,64.95
2023-05-05T18:20:47.952Z,65.06
2023-05-05T18:23:14.384Z,65.16
2023-05-05T18:25:41.532Z,64.99
2023-05-05T18:28:07.949Z,65.37
2023-05-05T18:30:35.636Z,65.40
2023-05-05T18:33:02.318Z,65.80
2023-05-05T18:35:29.321Z,65.65
2023-05-05T18:37:55.827Z,66.37
2023-05-05T18:40:22.713Z,66.36
2023-05-05T18:42:49.371Z,66.44
2023-05-05T18:45:15.921Z,67.08
2023-05-05T18:47:42.444Z,67.36
2023-05-05T18:50:09.934Z,67.69
2023-05-05T18:52:36.487Z,68.26
2023-05-05T18:55:03.090Z,68.14
2023-05-05T18:57:29.780Z,68.24
2023-05-05T18:59:56.209Z,68.28
2023-05-05T19:02:22.663Z,68.51
2023-05-05T19:04:49.350Z,68.56
2023-05-05T19:07:27.505Z,68.78
2023-05-05T19:10:00.574Z,68.84
2023-05-05T19:12:27.035Z,69.15
2023-05-05T19:14:53.519Z,69.34
2023-05-05T19:17:19.989Z,69.32
2023-05-05T19:19:46.425Z,69.38
2023-05-05T19:22:12.923Z,69.46
2023-05-05T19:24:39.317Z,69.62
2023-05-05T19:27:07.044Z,69.35
2023-05-05T19:29:33.815Z,69.71
2023-05-05T19:32:00.267Z,69.54
2023-05-05T19:34:26.948Z,70.14
2023-05-05T19:36:53.398Z,70.46
2023-05-05T19:39:19.787Z,70.62
2023-05-05T19:41:46.188Z,70.67
2023-05-05T19:44:12.638Z,70.64
2023-05-05T19:46:39.256Z,70.65
2023-05-05T19:49:06.175Z,70.89
2023-05-05T19:51:32.620Z,70.83
2023-05-05T19:53:59.470Z,70.94
2023-05-05T19:56:25.992Z,71.00
2023-05-05T19:58:57.456Z,70.71
2023-05-05T20:01:24.030Z,71.18
2023-05-05T20:03:51.186Z,71.15
2023-05-05T20:06:17.921Z,71.01
2023-05-05T20:08:44.353Z,71.28
2023-05-05T20:11:10.796Z,71.13
2023-05-05T20:13:38.266Z,71.29
2023-05-05T20:16:06.194Z,71.24
2023-05-05T20:18:32.990Z,71.55
2023-05-05T20:20:59.644Z,71.64
2023-05-05T20:23:26.799Z,71.40
2023-05-05T20:25:54.613Z,71.47
2023-05-05T20:28:21.114Z,71.48
2023-05-05T20:30:47.680Z,71.16
2023-05-05T20:33:14.109Z,71.68
2023-05-05T20:35:40.597Z,71.60
2023-05-05T20:38:07.052Z,71.78
2023-05-05T20:40:33.728Z,71.64
2023-05-05T20:43:00.264Z,71.98
2023-05-05T20:45:26.749Z,71.79
2023-05-05T20:47:53.365Z,72.17
2023-05-05T20:50:22.664Z,71.94
2023-05-05T20:52:49.547Z,71.91
2023-05-05T20:55:16.065Z,72.20
2023-05-05T20:57:42.526Z,72.32
2023-05-05T21:00:09.915Z,72.47
2023-05-05T21:02:37.136Z,72.37
2023-05-05T21:05:04.266Z,72.16
2023-05-05T21:07:37.064Z,72.30
2023-05-05T21:10:04.367Z,72.12
2023-05-05T21:12:31.494Z,72.41
2023-05-05T21:14:58.933Z,72.15
2023-05-05T21:17:26.773Z,72.30
2023-05-05T21:19:53.580Z,72.30
2023-05-05T21:22:20.981Z,72.32
2023-05-05T21:24:47.393Z,72.75
2023-05-05T21:27:14.440Z,72.56
2023-05-05T21:29:40.939Z,72.61
2023-05-05T21:32:08.768Z,72.56
2023-05-05T21:34:35.591Z,72.51
2023-05-05T21:37:02.270Z,72.85
2023-05-05T21:39:30.553Z,72.46
2023-05-05T21:41:57.069Z,72.67
2023-05-05T21:44:25.413Z,72.58
2023-05-05T21:46:55.646Z,72.64
2023-05-05T21:49:22.421Z,72.65
2023-05-05T21:51:48.946Z,72.79
2023-05-05T21:54:15.837Z,72.91
2023-05-05T21:56:42.296Z,73.00
2023-05-05T21:59:08.851Z,72.82
2023-05-05T22:01:35.369Z,72.71
2023-05-05T22:04:01.893Z,72.61
2023-05-05T22:06:28.376Z,72.86
2023-05-05T22:08:56.652Z,72.90
2023-05-05T22:11:23.412Z,73.24
2023-05-05T22:13:49.867Z,73.23
2023-05-05T22:16:17.636Z,73.13
2023-05-05T22:18:44.683Z,73.19
2023-05-05T22:21:11.330Z,73.30
2023-05-05T22:23:38.971Z,73.35
2023-05-05T22:26:05.483Z,73.63
2023-05-05T22:28:31.927Z,73.83
2023-05-05T22:30:58.373Z,73.50
2023-05-05T22:33:24.848Z,73.02
2023-05-05T22:35:52.027Z,73.56
2023-05-05T22:38:18.661Z,73.76
2023-05-05T22:40:45.666Z,73.65
2023-05-05T22:43:12.277Z,73.77
2023-05-05T22:45:38.916Z,73.86
2023-05-05T22:48:08.694Z,73.74
2023-05-05T22:50:35.751Z,73.66
2023-05-05T22:53:02.167Z,73.87
2023-05-05T22:55:28.832Z,74.15
2023-05-05T22:57:55.397Z,73.95
2023-05-05T23:00:21.871Z,74.00
2023-05-05T23:02:48.438Z,73.87
2023-05-05T23:05:14.844Z,73.95
2023-05-05T23:07:41.242Z,74.14
2023-05-05T23:10:08.142Z,74.19
2023-05-05T23:12:34.571Z,74.16
2023-05-05T23:15:01.325Z,74.56
2023-05-05T23:17:27.768Z,74.53
2023-05-05T23:19:54.243Z,74.45
2023-05-05T23:22:20.688Z,74.56
2023-05-05T23:24:47.100Z,74.57
2023-05-05T23:27:13.591Z,74.55
2023-05-05T23:29:39.995Z,74.58
2023-05-05T23:32:06.489Z,74.72
2023-05-05T23:34:32.968Z,74.67
2023-05-05T23:36:59.418Z,74.65
2023-05-05T23:39:25.871Z,74.47
2023-05-05T23:41:53.698Z,74.54
2023-05-05T23:44:20.101Z,74.86
2023-05-05T23:46:46.527Z,74.56
2023-05-05T23:49:13.017Z,74.71
2023-05-05T23:51:39.438Z,75.02
2023-05-05T23:54:05.926Z,74.71
2023-05-05T23:56:32.340Z,74.73
2023-05-05T23:58:58.741Z,74.90
